Time;durP1;ratioP1;P1;durP2;ratioP2;P2;SDS_P1;SDS_P2;PMS_P1;PMS_P2;Temp;Humidity;BMP_temperature;BMP_pressure;BME280_temperature;BME280_humidity;BME280_pressure;Samples;Min_cycle;Max_cycle;Signal;HPM_P1;HPM_P2
2022/05/28 00:01:10;;;;;;;12.38;5.30;;;12.80;71.70;;;;;;4994510;28;20046;-71
2022/05/28 00:03:36;;;;;;;17.08;8.20;;;12.80;71.80;;;;;;4998983;28;20033;-70
2022/05/28 00:06:02;;;;;;;18.58;7.85;;;12.90;72.20;;;;;;5004212;28;20716;-70
2022/05/28 00:08:28;;;;;;;16.48;7.72;;;12.90;72.30;;;;;;5004144;28;20070;-70
2022/05/28 00:10:57;;;;;;;19.40;8.60;;;12.90;72.40;;;;;;5002978;28;20109;-70
2022/05/28 00:13:23;;;;;;;18.60;9.35;;;13.00;72.40;;;;;;4999201;28;20565;-70
2022/05/28 00:15:49;;;;;;;20.48;7.80;;;13.00;72.30;;;;;;5004216;28;20046;-70
2022/05/28 00:18:15;;;;;;;14.68;6.78;;;12.90;72.20;;;;;;5007346;28;20064;-70
2022/05/28 00:20:41;;;;;;;15.07;7.00;;;13.00;72.20;;;;;;5003554;28;20389;-69
2022/05/28 00:23:07;;;;;;;15.82;6.05;;;13.00;72.20;;;;;;4996907;28;20053;-70
2022/05/28 00:25:33;;;;;;;12.95;7.10;;;13.00;72.00;;;;;;5000126;28;20040;-70
2022/05/28 00:28:00;;;;;;;17.23;7.22;;;13.00;72.10;;;;;;5000395;28;20022;-70
2022/05/28 00:30:25;;;;;;;14.80;6.85;;;12.90;72.20;;;;;;4996577;28;20393;-70
2022/05/28 00:32:51;;;;;;;30.40;13.15;;;13.00;72.20;;;;;;5000999;28;20037;-69
2022/05/28 00:35:19;;;;;;;29.60;14.43;;;12.90;72.10;;;;;;4999563;28;20030;-70
2022/05/28 00:37:46;;;;;;;30.13;13.63;;;13.00;72.20;;;;;;5007151;28;20541;-70
2022/05/28 00:40:17;;;;;;;25.85;11.85;;;12.90;72.20;;;;;;4999195;28;20034;-70
2022/05/28 00:42:42;;;;;;;20.75;9.60;;;12.90;72.40;;;;;;5003938;28;20041;-70
2022/05/28 00:45:09;;;;;;;18.05;7.90;;;12.80;72.60;;;;;;4999933;28;20038;-69
2022/05/28 00:47:35;;;;;;;14.45;6.78;;;12.90;72.70;;;;;;5002918;28;20500;-69
2022/05/28 00:50:03;;;;;;;15.95;6.78;;;12.90;72.90;;;;;;5007387;28;20081;-70
2022/05/28 00:52:29;;;;;;;12.65;5.85;;;12.90;73.00;;;;;;4998925;28;20022;-69
2022/05/28 00:54:55;;;;;;;13.57;6.18;;;12.90;73.00;;;;;;4999708;28;20076;-70
2022/05/28 00:57:23;;;;;;;16.95;6.25;;;12.90;73.10;;;;;;4997197;28;20045;-70
2022/05/28 00:59:49;;;;;;;16.27;6.15;;;12.90;73.10;;;;;;4994880;28;20064;-70
2022/05/28 01:02:24;;;;;;;14.70;6.45;;;12.90;73.10;;;;;;5006793;28;20062;-71
2022/05/28 01:04:59;;;;;;;15.15;6.57;;;13.00;73.10;;;;;;5001275;28;20037;-70
2022/05/28 01:07:42;;;;;;;14.60;6.70;;;12.90;73.00;;;;;;4998061;28;20123;-70
2022/05/28 01:10:46;;;;;;;17.60;6.60;;;13.00;72.90;;;;;;5002299;28;20493;-71
2022/05/28 01:13:24;;;;;;;15.40;7.43;;;13.00;72.90;;;;;;4978410;28;20144;-70
2022/05/28 01:16:06;;;;;;;14.20;7.30;;;13.00;73.00;;;;;;4980833;28;20038;-70
2022/05/28 01:18:48;;;;;;;14.70;7.10;;;13.00;73.00;;;;;;4993316;28;20525;-72
2022/05/28 01:21:40;;;;;;;14.80;7.40;;;13.00;73.00;;;;;;5001262;28;20045;-70
2022/05/28 01:24:47;;;;;;;19.00;7.97;;;13.00;73.10;;;;;;4993156;28;20077;-71
2022/05/28 01:27:17;;;;;;;15.82;8.07;;;12.90;73.40;;;;;;4993694;28;20063;-71
2022/05/28 01:29:48;;;;;;;20.13;8.73;;;12.90;73.60;;;;;;4999496;28;20131;-71
2022/05/28 01:32:15;;;;;;;17.67;8.25;;;12.80;73.90;;;;;;5006862;28;20133;-72
2022/05/28 01:34:43;;;;;;;21.02;9.60;;;12.80;74.10;;;;;;5001579;28;20062;-72
2022/05/28 01:37:10;;;;;;;23.45;9.75;;;12.80;74.40;;;;;;5004622;28;20052;-71
2022/05/28 01:39:39;;;;;;;23.67;10.25;;;12.70;74.60;;;;;;5001160;28;20034;-71
2022/05/28 01:42:07;;;;;;;20.77;9.98;;;12.60;75.00;;;;;;4999259;28;20045;-71
2022/05/28 01:44:36;;;;;;;21.45;9.73;;;12.60;75.10;;;;;;5003549;28;20046;-71
2022/05/28 01:47:01;;;;;;;18.35;8.85;;;12.60;75.40;;;;;;5006826;28;20405;-71
2022/05/28 01:49:29;;;;;;;19.77;9.68;;;12.50;75.70;;;;;;5002766;28;20042;-73
2022/05/28 01:51:57;;;;;;;19.63;9.82;;;12.50;75.80;;;;;;4999959;28;20038;-71
2022/05/28 01:54:27;;;;;;;19.88;10.60;;;12.50;75.90;;;;;;5012595;28;20038;-72
2022/05/28 01:56:54;;;;;;;20.00;10.20;;;12.50;76.10;;;;;;4999386;28;20122;-71
2022/05/28 01:59:24;;;;;;;19.98;10.73;;;12.50;76.20;;;;;;5004958;28;20041;-71
2022/05/28 02:01:51;;;;;;;22.33;11.40;;;12.50;76.50;;;;;;5003308;28;20045;-71
2022/05/28 02:04:17;;;;;;;23.58;11.50;;;12.40;76.70;;;;;;5007963;28;20216;-71
2022/05/28 02:06:43;;;;;;;20.45;11.90;;;12.40;76.90;;;;;;5008875;28;20484;-71
2022/05/28 02:09:13;;;;;;;23.33;11.75;;;12.30;77.30;;;;;;5001980;28;20076;-70
2022/05/28 02:11:57;;;;;;;22.50;11.98;;;12.30;77.70;;;;;;5001986;28;20048;-71
2022/05/28 02:14:42;;;;;;;22.90;12.10;;;12.20;77.90;;;;;;5004270;28;20156;-71
2022/05/28 02:17:32;;;;;;;23.05;11.73;;;12.20;78.00;;;;;;5001025;28;20030;-71
2022/05/28 02:20:19;;;;;;;23.90;12.35;;;12.20;78.10;;;;;;5006334;28;20056;-72
2022/05/28 02:22:54;;;;;;;21.63;11.63;;;12.10;78.20;;;;;;5001110;28;20475;-70
2022/05/28 02:25:34;;;;;;;21.00;10.68;;;12.10;78.20;;;;;;5000116;28;20211;-72
2022/05/28 02:28:03;;;;;;;29.17;11.63;;;12.10;78.40;;;;;;5003202;28;20034;-72
2022/05/28 02:30:30;;;;;;;23.50;10.90;;;12.10;78.50;;;;;;5002261;28;20048;-71
2022/05/28 02:33:05;;;;;;;18.75;11.52;;;12.10;78.60;;;;;;5002115;28;20474;-72
2022/05/28 02:35:32;;;;;;;22.38;11.68;;;12.10;78.60;;;;;;4996392;28;20057;-71
2022/05/28 02:37:58;;;;;;;17.95;10.85;;;12.10;78.70;;;;;;4996216;28;20032;-73
2022/05/28 02:40:23;;;;;;;22.50;10.85;;;12.00;78.70;;;;;;5002694;28;20057;-70
2022/05/28 02:42:49;;;;;;;21.98;11.23;;;12.00;78.80;;;;;;5001138;28;20066;-70
2022/05/28 02:45:15;;;;;;;19.35;10.70;;;12.00;78.70;;;;;;4994467;28;20076;-71
2022/05/28 02:47:41;;;;;;;18.85;10.90;;;12.00;78.60;;;;;;4998322;28;20030;-72
2022/05/28 02:50:08;;;;;;;17.00;10.18;;;11.90;78.60;;;;;;4994677;28;20045;-71
2022/05/28 02:52:34;;;;;;;20.63;10.63;;;11.90;78.60;;;;;;4994941;28;20034;-71
2022/05/28 02:55:00;;;;;;;19.42;9.93;;;11.90;78.60;;;;;;4998034;28;20440;-71
2022/05/28 02:57:25;;;;;;;20.55;10.75;;;11.90;78.50;;;;;;5003176;28;20046;-70
2022/05/28 02:59:51;;;;;;;19.02;9.90;;;11.80;78.60;;;;;;5003057;28;20042;-71
2022/05/28 03:02:17;;;;;;;18.00;9.07;;;11.80;78.60;;;;;;4996281;28;20203;-71
2022/05/28 03:04:42;;;;;;;17.13;8.95;;;11.80;78.60;;;;;;4997793;28;20034;-71
2022/05/28 03:07:08;;;;;;;17.30;8.15;;;11.70;78.70;;;;;;4997544;28;20037;-72
2022/05/28 03:09:34;;;;;;;20.38;9.07;;;11.70;78.60;;;;;;5000048;28;21211;-71
2022/05/28 03:12:00;;;;;;;14.00;7.80;;;11.60;78.70;;;;;;5002928;28;20437;-70
2022/05/28 03:14:25;;;;;;;18.33;8.40;;;11.60;78.80;;;;;;5001118;28;20481;-71
2022/05/28 03:16:52;;;;;;;17.52;8.27;;;11.60;78.90;;;;;;5007232;28;20044;-71
2022/05/28 03:19:18;;;;;;;17.70;7.88;;;11.50;79.00;;;;;;5000846;28;20030;-70
2022/05/28 03:21:44;;;;;;;15.85;7.13;;;11.50;79.00;;;;;;5002786;28;20060;-71
2022/05/28 03:24:10;;;;;;;12.13;6.32;;;11.50;79.00;;;;;;4995112;28;20049;-70
2022/05/28 03:26:36;;;;;;;12.73;6.47;;;11.50;78.90;;;;;;5006471;28;20123;-71
2022/05/28 03:29:03;;;;;;;13.52;7.00;;;11.50;79.00;;;;;;4999258;28;20053;-71
2022/05/28 03:31:29;;;;;;;12.57;6.28;;;11.50;78.90;;;;;;4998200;28;20048;-71
2022/05/28 03:33:56;;;;;;;13.38;5.60;;;11.40;78.80;;;;;;5005743;28;20033;-72
2022/05/28 03:36:23;;;;;;;15.65;6.35;;;11.50;78.80;;;;;;4993690;28;20972;-71
2022/05/28 03:38:49;;;;;;;11.73;5.72;;;11.50;78.80;;;;;;4991712;28;20044;-71
2022/05/28 03:41:15;;;;;;;12.48;5.93;;;11.50;78.80;;;;;;4995854;28;20068;-71
2022/05/28 03:43:40;;;;;;;13.00;6.50;;;11.50;78.80;;;;;;5001738;28;20042;-71
2022/05/28 03:46:21;;;;;;;15.95;6.60;;;11.40;78.60;;;;;;5004193;28;20049;-71
2022/05/28 03:48:47;;;;;;;12.43;6.10;;;11.50;78.60;;;;;;5001249;28;20068;-71
2022/05/28 03:51:12;;;;;;;12.02;5.47;;;11.40;78.40;;;;;;4999415;28;20486;-71
2022/05/28 03:53:38;;;;;;;15.52;6.50;;;11.40;78.50;;;;;;4995065;28;20084;-71
2022/05/28 03:56:04;;;;;;;14.75;6.10;;;11.50;78.50;;;;;;4993478;28;20038;-70
2022/05/28 03:58:29;;;;;;;15.13;5.72;;;11.50;78.40;;;;;;4996549;28;20080;-72
2022/05/28 04:00:55;;;;;;;13.30;5.22;;;11.60;78.20;;;;;;4995280;28;20056;-71
2022/05/28 04:03:21;;;;;;;13.90;5.70;;;11.60;78.10;;;;;;5000310;28;20042;-72
2022/05/28 04:05:46;;;;;;;15.43;5.38;;;11.70;77.80;;;;;;5002191;28;20375;-71
2022/05/28 04:08:12;;;;;;;13.77;5.47;;;11.70;77.40;;;;;;4999190;28;20046;-71
2022/05/28 04:10:37;;;;;;;12.55;5.07;;;11.80;77.30;;;;;;5000198;28;20045;-70
2022/05/28 04:13:03;;;;;;;16.02;5.00;;;11.90;77.10;;;;;;4997675;28;20064;-72
2022/05/28 04:15:30;;;;;;;10.95;4.82;;;11.90;76.90;;;;;;5002708;28;20659;-72
2022/05/28 04:17:56;;;;;;;11.35;4.70;;;12.10;76.80;;;;;;5005152;28;20045;-71
2022/05/28 04:20:22;;;;;;;11.95;4.63;;;12.10;76.70;;;;;;5000788;28;20406;-71
2022/05/28 04:22:47;;;;;;;12.77;4.50;;;12.10;76.50;;;;;;5000250;28;20073;-72
2022/05/28 04:25:13;;;;;;;11.75;4.03;;;12.20;76.30;;;;;;5000668;28;20506;-71
2022/05/28 04:27:42;;;;;;;12.20;4.50;;;12.20;76.10;;;;;;4999786;28;20053;-71
2022/05/28 04:30:08;;;;;;;13.35;4.18;;;12.20;76.10;;;;;;5002859;28;20480;-71
2022/05/28 04:32:33;;;;;;;9.95;3.92;;;12.30;76.00;;;;;;4998787;28;20060;-71
2022/05/28 04:34:59;;;;;;;12.75;4.43;;;12.40;75.90;;;;;;4999001;28;20387;-71
2022/05/28 04:37:24;;;;;;;12.88;4.07;;;12.40;75.70;;;;;;5006259;28;20519;-71
2022/05/28 04:39:50;;;;;;;10.77;4.20;;;12.40;75.50;;;;;;5003689;28;20038;-71
2022/05/28 04:42:16;;;;;;;11.68;4.47;;;12.50;75.60;;;;;;4997241;28;20117;-71
2022/05/28 04:44:41;;;;;;;11.77;4.00;;;12.60;75.50;;;;;;5003470;28;20030;-71
2022/05/28 04:47:07;;;;;;;12.52;4.60;;;12.60;75.40;;;;;;4999321;28;20354;-71
2022/05/28 04:49:33;;;;;;;16.45;4.25;;;12.70;75.10;;;;;;5005837;28;20561;-72
2022/05/28 04:51:58;;;;;;;11.18;4.13;;;12.70;74.90;;;;;;5006219;28;20044;-71
2022/05/28 04:54:24;;;;;;;10.88;4.43;;;12.80;74.70;;;;;;5004115;28;20038;-70
2022/05/28 04:56:50;;;;;;;10.63;4.03;;;12.80;74.60;;;;;;5004155;28;20047;-71
2022/05/28 04:59:16;;;;;;;14.30;4.68;;;12.90;74.50;;;;;;4991543;28;20394;-72
2022/05/28 05:01:41;;;;;;;13.10;4.38;;;12.90;74.40;;;;;;5003639;28;20111;-70
2022/05/28 05:04:07;;;;;;;11.55;3.83;;;13.00;74.40;;;;;;5002604;28;20405;-71
2022/05/28 05:06:32;;;;;;;11.68;4.15;;;13.00;74.40;;;;;;5001557;28;20042;-71
2022/05/28 05:08:58;;;;;;;11.98;4.28;;;13.00;74.40;;;;;;4999635;28;20587;-70
2022/05/28 05:11:24;;;;;;;18.10;5.28;;;13.20;74.20;;;;;;4996905;28;20042;-72
2022/05/28 05:13:49;;;;;;;13.30;4.28;;;13.30;74.00;;;;;;5013304;28;20045;-71
2022/05/28 05:16:17;;;;;;;13.35;4.10;;;13.40;73.30;;;;;;5002994;28;20773;-71
2022/05/28 05:18:43;;;;;;;16.08;4.80;;;14.00;72.80;;;;;;5000969;28;20160;-70
2022/05/28 05:21:12;;;;;;;11.27;3.92;;;15.10;69.40;;;;;;5035169;28;20049;-71
2022/05/28 05:23:39;;;;;;;12.55;3.63;;;16.30;65.20;;;;;;5001584;28;20046;-71
2022/05/28 05:26:13;;;;;;;11.52;3.30;;;17.40;61.70;;;;;;4999836;28;20073;-71
2022/05/28 05:28:39;;;;;;;9.40;3.08;;;18.40;58.50;;;;;;5001668;28;20240;-71
2022/05/28 05:31:04;;;;;;;9.75;3.00;;;18.60;57.00;;;;;;4995944;28;20057;-71
2022/05/28 05:33:30;;;;;;;11.63;3.40;;;18.70;56.20;;;;;;5000034;28;20036;-72
2022/05/28 05:35:56;;;;;;;12.20;2.65;;;18.80;56.20;;;;;;5003261;28;20537;-71
2022/05/28 05:38:21;;;;;;;8.65;2.72;;;18.90;55.30;;;;;;4993577;28;20549;-71
2022/05/28 05:40:51;;;;;;;11.25;2.92;;;19.40;54.90;;;;;;5002993;28;20389;-72
2022/05/28 05:43:17;;;;;;;11.68;3.00;;;19.60;53.00;;;;;;4998172;28;20034;-72
2022/05/28 05:45:42;;;;;;;8.57;2.50;;;20.10;53.30;;;;;;4999508;28;20073;-72
2022/05/28 05:48:08;;;;;;;8.40;2.85;;;19.70;52.90;;;;;;4997099;28;20120;-71
2022/05/28 05:50:34;;;;;;;13.25;3.10;;;20.00;52.80;;;;;;4997173;28;20048;-71
2022/05/28 05:52:59;;;;;;;9.60;2.65;;;19.90;53.00;;;;;;5003827;28;20050;-71
2022/05/28 05:55:25;;;;;;;8.45;2.90;;;19.30;53.70;;;;;;5001237;28;20052;-71
2022/05/28 05:57:51;;;;;;;7.50;2.85;;;18.40;57.30;;;;;;4997249;28;20038;-71
2022/05/28 06:00:17;;;;;;;10.50;2.55;;;17.60;59.00;;;;;;5000855;28;20584;-71
2022/05/28 06:02:43;;;;;;;18.02;3.60;;;16.90;60.90;;;;;;5005293;28;20408;-70
2022/05/28 06:05:09;;;;;;;11.38;3.05;;;16.60;63.20;;;;;;5004114;28;20465;-72
2022/05/28 06:07:34;;;;;;;10.35;2.78;;;16.20;64.30;;;;;;5003890;28;20395;-72
2022/05/28 06:10:00;;;;;;;9.63;2.90;;;16.10;65.40;;;;;;4994207;28;20229;-71
2022/05/28 06:12:26;;;;;;;10.75;2.40;;;16.00;65.70;;;;;;4999523;28;20053;-73
2022/05/28 06:14:51;;;;;;;10.93;2.78;;;16.00;66.00;;;;;;4995405;28;20485;-72
2022/05/28 06:17:17;;;;;;;8.55;2.10;;;15.90;66.30;;;;;;4999569;28;20057;-72
2022/05/28 06:19:42;;;;;;;10.40;3.10;;;15.70;66.70;;;;;;4996710;28;20183;-71
2022/05/28 06:22:08;;;;;;;11.55;3.13;;;15.70;66.50;;;;;;5001074;28;20156;-71
2022/05/28 06:24:33;;;;;;;12.48;2.97;;;15.60;67.20;;;;;;5000794;28;20045;-72
2022/05/28 06:27:03;;;;;;;15.88;3.58;;;15.80;67.70;;;;;;4995094;28;20752;-72
2022/05/28 06:29:29;;;;;;;10.60;3.00;;;16.00;66.40;;;;;;5000677;28;20049;-71
2022/05/28 06:31:55;;;;;;;10.68;3.17;;;16.10;67.30;;;;;;5002499;28;20440;-72
2022/05/28 06:34:21;;;;;;;9.32;2.80;;;16.60;66.30;;;;;;5000368;28;20046;-71
2022/05/28 06:36:46;;;;;;;12.20;2.88;;;16.40;65.40;;;;;;4999310;28;20037;-72
2022/05/28 06:39:13;;;;;;;17.77;3.53;;;16.10;66.50;;;;;;4992829;28;20084;-72
2022/05/28 06:41:38;;;;;;;12.60;2.53;;;16.10;67.10;;;;;;4999588;28;20092;-70
2022/05/28 06:44:04;;;;;;;13.18;2.88;;;16.10;66.30;;;;;;4999303;28;20104;-73
2022/05/28 06:46:30;;;;;;;13.50;2.50;;;16.00;64.80;;;;;;5000516;28;20117;-72
2022/05/28 06:48:56;;;;;;;12.55;2.35;;;16.00;66.40;;;;;;4991633;28;20040;-72
2022/05/28 06:51:22;;;;;;;15.70;3.10;;;16.10;65.30;;;;;;4994857;28;20048;-71
2022/05/28 06:53:48;;;;;;;11.65;2.60;;;16.30;65.20;;;;;;4999346;28;20057;-73
2022/05/28 06:56:16;;;;;;;13.88;3.63;;;16.40;65.10;;;;;;4997491;28;20041;-73
2022/05/28 06:58:43;;;;;;;14.80;3.80;;;16.50;64.80;;;;;;4999400;28;20168;-72
2022/05/28 07:01:10;;;;;;;10.57;2.63;;;16.60;64.30;;;;;;5001907;28;20037;-72
2022/05/28 07:03:36;;;;;;;9.43;2.00;;;16.80;63.00;;;;;;4996861;28;20060;-73
2022/05/28 07:06:02;;;;;;;11.80;2.30;;;16.80;61.70;;;;;;4998581;28;20509;-71
2022/05/28 07:08:29;;;;;;;8.23;1.83;;;16.70;62.20;;;;;;4993366;28;20125;-73
2022/05/28 07:10:57;;;;;;;9.20;2.25;;;16.50;62.80;;;;;;4995535;28;20042;-73
2022/05/28 07:13:24;;;;;;;8.52;2.00;;;16.60;62.40;;;;;;4993278;28;20034;-73
2022/05/28 07:15:51;;;;;;;10.18;1.95;;;16.60;61.30;;;;;;4994786;28;20488;-70
2022/05/28 07:18:17;;;;;;;11.32;2.60;;;16.60;62.30;;;;;;4998248;28;20042;-72
2022/05/28 07:20:44;;;;;;;9.10;2.05;;;16.80;62.20;;;;;;4997915;28;20037;-72
2022/05/28 07:23:12;;;;;;;15.38;2.97;;;16.90;61.90;;;;;;4998081;28;20045;-73
2022/05/28 07:25:39;;;;;;;9.02;2.00;;;16.80;61.00;;;;;;5002094;28;20113;-72
2022/05/28 07:28:24;;;;;;;9.90;2.25;;;16.90;62.20;;;;;;5000549;28;20041;-72
2022/05/28 07:30:54;;;;;;;12.02;2.28;;;16.80;62.30;;;;;;4994643;28;20038;-72
2022/05/28 07:33:20;;;;;;;7.70;1.90;;;16.90;61.90;;;;;;5001150;28;20037;-72
2022/05/28 07:35:47;;;;;;;10.18;2.25;;;16.80;62.70;;;;;;5001257;28;20039;-70
2022/05/28 07:38:13;;;;;;;8.40;2.00;;;16.80;61.70;;;;;;4995824;28;20116;-70
2022/05/28 07:40:38;;;;;;;11.55;2.10;;;16.50;60.10;;;;;;4995629;28;20078;-71
2022/05/28 07:43:04;;;;;;;7.72;1.70;;;16.40;61.70;;;;;;4992062;28;20053;-69
2022/05/28 07:45:35;;;;;;;6.20;1.77;;;16.30;61.60;;;;;;5000376;28;20076;-68
2022/05/28 07:48:00;;;;;;;9.75;2.10;;;16.40;61.30;;;;;;4995618;28;20486;-70
2022/05/28 07:50:26;;;;;;;6.65;1.77;;;16.50;61.20;;;;;;4995777;28;20061;-69
2022/05/28 07:52:51;;;;;;;6.97;1.65;;;16.40;59.80;;;;;;4996761;28;20030;-71
2022/05/28 07:55:17;;;;;;;8.15;2.00;;;16.10;59.60;;;;;;4993668;28;20034;-69
2022/05/28 07:57:43;;;;;;;7.90;1.70;;;16.00;59.70;;;;;;4990069;28;20398;-70
2022/05/28 08:00:09;;;;;;;5.88;1.60;;;16.00;60.20;;;;;;4990398;28;20045;-71
2022/05/28 08:02:34;;;;;;;8.30;1.77;;;16.30;60.70;;;;;;4995213;28;20116;-70
2022/05/28 08:05:00;;;;;;;5.10;1.40;;;16.60;59.40;;;;;;4990318;28;20364;-70
2022/05/28 08:07:26;;;;;;;8.40;2.03;;;17.30;59.70;;;;;;4993722;28;20072;-71
2022/05/28 08:09:51;;;;;;;8.07;1.40;;;17.90;56.90;;;;;;4995014;28;20072;-70
2022/05/28 08:12:17;;;;;;;8.15;2.00;;;17.80;55.50;;;;;;5001325;28;20037;-69
2022/05/28 08:14:43;;;;;;;7.43;1.77;;;17.50;55.60;;;;;;4994721;28;20819;-69
2022/05/28 08:17:08;;;;;;;7.70;1.75;;;17.10;58.00;;;;;;4991288;28;20196;-70
2022/05/28 08:19:34;;;;;;;7.55;1.60;;;16.90;57.70;;;;;;4988798;28;20083;-70
2022/05/28 08:24:44;;;;;;;5.35;1.40;;;16.60;57.80;;;;;;4988953;28;20092;-70
2022/05/28 08:27:10;;;;;;;9.38;1.80;;;16.60;58.50;;;;;;4991360;28;20038;-71
2022/05/28 08:29:35;;;;;;;6.90;1.65;;;16.50;58.30;;;;;;4987163;28;20457;-71
2022/05/28 08:32:01;;;;;;;5.57;1.48;;;16.80;59.10;;;;;;4988577;28;20072;-74
2022/05/28 08:34:27;;;;;;;5.82;1.50;;;16.90;57.90;;;;;;4988466;28;20490;-70
2022/05/28 08:36:52;;;;;;;5.47;1.33;;;17.00;57.10;;;;;;4997744;28;20049;-70
2022/05/28 08:39:18;;;;;;;8.40;1.70;;;16.80;56.80;;;;;;4997127;28;20097;-72
2022/05/28 08:41:55;;;;;;;9.32;1.75;;;16.70;57.90;;;;;;4997617;28;20529;-70
2022/05/28 08:44:40;;;;;;;7.28;1.85;;;16.70;56.70;;;;;;4996878;28;20142;-70
2022/05/28 08:47:33;;;;;;;7.30;2.00;;;16.70;57.30;;;;;;4991000;28;20041;-71
2022/05/28 08:49:59;;;;;;;10.05;1.70;;;16.70;58.80;;;;;;4991235;28;20053;-69
2022/05/28 08:52:43;;;;;;;10.80;1.92;;;16.60;59.30;;;;;;4992064;28;20038;-72
2022/05/28 08:55:17;;;;;;;8.07;1.77;;;17.10;59.30;;;;;;5002317;28;20049;-73
2022/05/28 08:58:03;;;;;;;8.57;1.80;;;17.10;57.60;;;;;;4994106;28;20057;-72
2022/05/28 09:00:57;;;;;;;8.07;2.10;;;17.40;57.70;;;;;;4997548;28;20440;-72
2022/05/28 09:03:30;;;;;;;8.10;1.65;;;17.80;55.90;;;;;;4984204;28;20034;-71
2022/05/28 09:06:10;;;;;;;6.57;1.67;;;17.60;54.60;;;;;;5000269;28;20030;-72
2022/05/28 09:08:46;;;;;;;10.43;2.20;;;17.10;55.90;;;;;;4988887;28;20027;-74
2022/05/28 09:11:21;;;;;;;6.05;1.83;;;17.20;57.20;;;;;;4997410;28;20468;-71
2022/05/28 09:13:50;;;;;;;5.57;1.60;;;16.90;57.30;;;;;;4989802;28;20030;-71
2022/05/28 09:16:38;;;;;;;5.72;1.65;;;16.90;57.10;;;;;;5000169;28;20030;-72
2022/05/28 09:19:10;;;;;;;6.93;1.60;;;17.70;54.90;;;;;;4996306;28;20034;-70
2022/05/28 09:21:38;;;;;;;6.65;2.05;;;18.30;51.80;;;;;;4997005;28;20037;-72
2022/05/28 09:24:09;;;;;;;6.55;1.92;;;18.20;51.90;;;;;;4994742;28;20362;-72
2022/05/28 09:26:39;;;;;;;9.57;1.80;;;18.60;52.30;;;;;;4998970;28;20045;-73
2022/05/28 09:29:17;;;;;;;6.50;1.42;;;18.60;52.10;;;;;;4995358;28;20042;-71
2022/05/28 09:32:07;;;;;;;6.00;1.48;;;18.70;50.40;;;;;;5014167;28;20600;-73
2022/05/28 09:34:48;;;;;;;5.15;1.52;;;18.30;52.00;;;;;;5001099;28;20041;-73
2022/05/28 09:37:27;;;;;;;11.75;1.77;;;17.70;53.60;;;;;;5002697;28;20052;-71
2022/05/28 09:40:11;;;;;;;7.72;1.30;;;17.70;53.70;;;;;;4995342;28;20057;-73
2022/05/28 09:42:52;;;;;;;8.65;1.60;;;18.10;52.80;;;;;;4987699;28;20152;-72
2022/05/28 09:45:27;;;;;;;6.40;1.58;;;18.40;50.70;;;;;;4984581;28;20604;-72
2022/05/28 09:47:53;;;;;;;6.07;1.77;;;18.60;50.40;;;;;;4989295;28;20038;-74
2022/05/28 09:50:38;;;;;;;6.93;1.90;;;18.90;50.50;;;;;;4986938;28;20093;-70
2022/05/28 09:56:25;;;;;;;6.10;1.80;;;17.60;53.70;;;;;;4991294;28;20041;-72
2022/05/28 09:58:51;;;;;;;6.68;1.80;;;17.90;52.60;;;;;;4990284;28;20486;-73
2022/05/28 10:01:24;;;;;;;3.95;1.17;;;18.10;52.40;;;;;;4987334;28;20039;-74
2022/05/28 10:06:50;;;;;;;7.40;1.52;;;19.00;47.30;;;;;;4990609;28;20045;-72
2022/05/28 10:09:21;;;;;;;5.95;1.35;;;19.20;46.90;;;;;;4993939;28;20399;-72
2022/05/28 10:11:55;;;;;;;7.45;2.00;;;19.20;46.40;;;;;;4997734;28;20838;-74
2022/05/28 10:14:23;;;;;;;8.65;1.80;;;18.70;47.10;;;;;;4996429;28;22795;-72
2022/05/28 10:17:00;;;;;;;9.05;1.60;;;18.40;48.40;;;;;;4996239;28;20030;-70
2022/05/28 10:19:34;;;;;;;5.68;1.25;;;18.10;49.20;;;;;;4995271;28;20149;-74
2022/05/28 10:22:04;;;;;;;7.60;1.58;;;18.30;49.10;;;;;;4991477;28;20152;-76
2022/05/28 10:24:40;;;;;;;4.70;1.42;;;18.80;47.60;;;;;;5000603;28;20065;-72
2022/05/28 10:27:19;;;;;;;5.95;1.52;;;18.70;49.70;;;;;;4992583;28;20086;-75
2022/05/28 10:29:49;;;;;;;8.27;1.65;;;18.80;47.70;;;;;;4993923;28;20294;-73
2022/05/28 10:32:35;;;;;;;7.82;1.40;;;18.50;48.10;;;;;;4995695;28;20041;-73
2022/05/28 10:35:06;;;;;;;4.90;1.30;;;18.40;48.90;;;;;;4995399;28;20062;-75
2022/05/28 10:37:32;;;;;;;4.97;1.17;;;18.80;48.00;;;;;;4997460;28;20064;-73
2022/05/28 10:40:06;;;;;;;6.13;1.40;;;19.10;44.90;;;;;;4994066;28;20098;-75
2022/05/28 10:42:32;;;;;;;8.40;1.55;;;19.10;45.90;;;;;;4989517;28;20113;-72
2022/05/28 10:44:58;;;;;;;6.95;1.50;;;19.30;46.50;;;;;;4993101;28;20042;-73
2022/05/28 10:48:10;;;;;;;8.45;1.48;;;19.40;47.40;;;;;;4995522;28;20030;-72
2022/05/28 10:51:11;;;;;;;6.88;1.63;;;18.90;47.60;;;;;;4921642;28;20055;-72
2022/05/28 10:53:52;;;;;;;4.85;1.40;;;18.60;48.60;;;;;;4929886;28;20142;-72
2022/05/28 10:56:24;;;;;;;6.50;1.17;;;18.60;48.90;;;;;;4984674;28;20035;-71
2022/05/28 10:59:18;;;;;;;6.20;1.67;;;19.00;49.30;;;;;;4993468;28;20038;-69
2022/05/28 11:01:47;;;;;;;7.07;1.50;;;18.90;46.60;;;;;;4992679;28;20037;-72
2022/05/28 11:04:18;;;;;;;4.70;1.45;;;18.70;46.80;;;;;;5001085;28;20042;-73
2022/05/28 11:07:31;;;;;;;9.18;1.58;;;18.60;47.60;;;;;;5000046;28;20038;-69
2022/05/28 11:10:21;;;;;;;11.30;1.48;;;18.30;47.60;;;;;;4995264;28;20590;-72
2022/05/28 11:13:17;;;;;;;3.78;1.23;;;18.50;47.60;;;;;;4989053;28;20034;-71
2022/05/28 11:16:01;;;;;;;7.70;1.63;;;18.60;46.90;;;;;;4990393;28;20509;-71
2022/05/28 11:18:26;;;;;;;5.13;1.48;;;19.30;47.40;;;;;;4983240;28;21163;-74
2022/05/28 11:21:13;;;;;;;4.75;1.27;;;19.50;45.90;;;;;;4985916;28;20485;-71
2022/05/28 11:24:00;;;;;;;4.32;1.23;;;19.90;44.50;;;;;;4984200;28;20079;-70
2022/05/28 11:26:43;;;;;;;5.95;1.40;;;19.50;44.10;;;;;;4992160;28;20034;-70
2022/05/28 11:29:30;;;;;;;5.75;1.70;;;19.00;47.80;;;;;;4988256;28;20049;-72
2022/05/28 11:32:03;;;;;;;8.85;1.50;;;18.30;48.30;;;;;;4995724;28;20045;-69
2022/05/28 11:34:45;;;;;;;5.85;1.20;;;18.30;48.90;;;;;;5002381;28;20049;-73
2022/05/28 11:37:13;;;;;;;4.85;1.17;;;18.60;46.30;;;;;;4987424;28;20049;-71
2022/05/28 11:40:14;;;;;;;5.35;1.38;;;18.90;46.80;;;;;;4989083;28;20054;-74
2022/05/28 11:42:47;;;;;;;4.75;1.35;;;19.30;46.00;;;;;;4993343;28;20438;-71
2022/05/28 11:45:22;;;;;;;11.50;1.83;;;19.60;46.10;;;;;;5001177;28;20042;-72
2022/05/28 11:48:03;;;;;;;10.43;1.40;;;18.80;45.40;;;;;;4992055;28;20040;-71
2022/05/28 11:53:48;;;;;;;5.30;1.33;;;18.60;47.00;;;;;;4992558;28;20064;-69
2022/05/28 11:56:22;;;;;;;5.72;1.23;;;19.10;46.30;;;;;;4989325;28;20084;-73
2022/05/28 11:58:52;;;;;;;4.50;1.35;;;19.00;45.00;;;;;;4990184;28;20192;-74
2022/05/28 12:01:27;;;;;;;4.88;1.55;;;18.50;46.90;;;;;;4996379;28;20052;-71
2022/05/28 12:03:53;;;;;;;6.30;1.35;;;18.80;45.80;;;;;;4998092;28;20038;-72
2022/05/28 12:06:22;;;;;;;5.50;1.30;;;19.10;44.20;;;;;;4993040;28;20053;-75
2022/05/28 12:09:14;;;;;;;6.80;1.50;;;18.80;45.10;;;;;;4985969;28;20056;-71
2022/05/28 12:12:01;;;;;;;7.10;1.38;;;18.90;46.60;;;;;;4988298;28;20051;-70
2022/05/28 12:14:34;;;;;;;4.07;1.08;;;19.10;45.30;;;;;;4990222;28;20049;-72
2022/05/28 12:17:17;;;;;;;6.53;1.50;;;18.70;44.20;;;;;;4986120;28;20085;-71
2022/05/28 12:19:44;;;;;;;11.52;1.85;;;19.10;45.40;;;;;;4988012;28;20490;-72
2022/05/28 12:22:30;;;;;;;3.55;1.00;;;19.20;45.80;;;;;;4989914;28;20069;-72
2022/05/28 12:24:59;;;;;;;5.30;1.55;;;19.00;43.80;;;;;;4988844;28;20049;-75
2022/05/28 12:27:40;;;;;;;6.90;1.63;;;18.60;45.70;;;;;;4992091;28;20125;-69
2022/05/28 12:30:10;;;;;;;10.82;1.73;;;18.10;47.50;;;;;;4992483;28;20133;-71
2022/05/28 12:32:45;;;;;;;8.45;1.60;;;17.80;48.20;;;;;;4976140;28;20042;-74
2022/05/28 12:35:20;;;;;;;10.90;1.70;;;17.70;48.20;;;;;;4983639;28;20057;-71
2022/05/28 12:37:55;;;;;;;5.10;1.23;;;18.30;47.10;;;;;;4986124;28;20355;-71
2022/05/28 12:40:27;;;;;;;5.13;1.45;;;18.40;45.50;;;;;;4990899;28;20196;-73
2022/05/28 12:42:53;;;;;;;6.00;1.60;;;18.80;46.30;;;;;;4990875;28;20045;-69
2022/05/28 12:45:37;;;;;;;7.18;1.83;;;18.50;45.70;;;;;;4993050;28;20041;-71
2022/05/28 12:48:25;;;;;;;5.32;1.67;;;17.90;44.60;;;;;;4990563;28;20566;-71
2022/05/28 12:51:10;;;;;;;5.65;1.30;;;17.80;46.80;;;;;;4986282;28;20053;-70
2022/05/28 12:53:46;;;;;;;;;;;18.10;45.20;;;;;;4990321;28;20042;-70
2022/05/28 12:56:25;;;;;;;6.40;1.63;;;18.20;45.00;;;;;;4987403;28;19926;-71
2022/05/28 12:58:52;;;;;;;7.43;1.60;;;18.40;44.70;;;;;;4996261;28;20045;-71
2022/05/28 13:01:38;;;;;;;9.95;1.83;;;18.40;43.70;;;;;;4992536;28;20042;-73
2022/05/28 13:04:14;;;;;;;5.97;1.40;;;18.10;44.70;;;;;;4997097;28;20123;-70
2022/05/28 13:06:52;;;;;;;5.53;1.38;;;18.30;45.70;;;;;;4988296;28;20145;-72
2022/05/28 13:09:24;;;;;;;5.63;1.30;;;18.30;44.00;;;;;;4987183;28;20041;-70
2022/05/28 13:12:31;;;;;;;5.82;1.30;;;18.50;43.00;;;;;;4989948;28;20103;-69